Time;durP1;ratioP1;P1;durP2;ratioP2;P2;SDS_P1;SDS_P2;PMS_P1;PMS_P2;Temp;Humidity;BMP_temperature;BMP_pressure;BME280_temperature;BME280_humidity;BME280_pressure;Samples;Min_cycle;Max_cycle;Signal;HPM_P1;HPM_P2
2022/05/15 00:01:38;;;;;;;3.10;2.80;;;23.30;49.90;;;;;;5003372;28;20467;-48
2022/05/15 00:04:07;;;;;;;2.50;2.30;;;23.30;50.00;;;;;;5000760;28;20748;-48
2022/05/15 00:06:35;;;;;;;2.27;2.07;;;23.30;50.00;;;;;;4990851;28;20550;-48
2022/05/15 00:09:04;;;;;;;2.77;2.47;;;23.30;50.00;;;;;;5002546;28;21054;-49
2022/05/15 00:11:32;;;;;;;2.37;2.17;;;23.30;49.90;;;;;;5002863;28;21002;-48
2022/05/15 00:14:02;;;;;;;2.93;2.73;;;23.30;50.10;;;;;;5002296;28;20443;-50
2022/05/15 00:16:31;;;;;;;2.60;2.40;;;23.30;50.10;;;;;;5003258;28;20464;-49
2022/05/15 00:19:03;;;;;;;2.67;2.47;;;23.30;50.10;;;;;;5002029;28;20470;-48
2022/05/15 00:21:40;;;;;;;2.40;2.20;;;23.30;50.00;;;;;;4997644;28;20545;-48
2022/05/15 00:24:09;;;;;;;2.20;2.00;;;23.30;50.00;;;;;;5001055;28;21697;-49
2022/05/15 00:26:37;;;;;;;2.30;2.17;;;23.30;50.10;;;;;;5000761;28;21067;-49
2022/05/15 00:29:06;;;;;;;2.33;2.13;;;23.30;50.10;;;;;;5002811;28;20951;-47
2022/05/15 00:31:35;;;;;;;2.50;2.30;;;23.30;50.00;;;;;;5003767;28;20901;-49
2022/05/15 00:34:06;;;;;;;2.60;2.40;;;23.30;50.00;;;;;;5000007;28;20521;-49
2022/05/15 00:36:36;;;;;;;2.20;2.10;;;23.30;50.10;;;;;;5000139;28;20516;-49
2022/05/15 00:39:05;;;;;;;2.30;2.13;;;23.30;50.10;;;;;;5001896;28;20530;-50
2022/05/15 00:41:37;;;;;;;2.90;2.20;;;23.30;50.10;;;;;;4998003;28;21080;-49
2022/05/15 00:44:09;;;;;;;2.60;2.40;;;23.30;50.20;;;;;;4998822;28;20464;-48
2022/05/15 00:46:41;;;;;;;2.07;1.87;;;23.30;50.20;;;;;;5003429;28;20467;-50
2022/05/15 00:49:13;;;;;;;2.60;2.40;;;23.30;50.10;;;;;;5001694;28;20468;-48
2022/05/15 00:51:45;;;;;;;2.77;2.50;;;23.30;50.20;;;;;;4991499;28;20447;-48
2022/05/15 00:54:23;;;;;;;2.20;2.00;;;23.30;50.20;;;;;;5001961;28;20882;-49
2022/05/15 00:56:57;;;;;;;2.60;2.40;;;23.30;50.20;;;;;;5012204;28;20460;-48
2022/05/15 00:59:31;;;;;;;2.70;2.50;;;23.30;50.00;;;;;;5000797;28;20557;-49
2022/05/15 01:01:59;;;;;;;2.10;2.00;;;23.30;50.10;;;;;;5003026;28;20434;-50
2022/05/15 01:04:28;;;;;;;3.10;2.27;;;23.20;50.00;;;;;;4998999;28;20464;-48
2022/05/15 01:06:57;;;;;;;2.60;2.40;;;23.30;50.20;;;;;;5001608;28;20550;-47
2022/05/15 01:09:25;;;;;;;2.47;2.27;;;23.20;50.20;;;;;;4994263;28;21325;-46
2022/05/15 01:11:53;;;;;;;2.40;2.20;;;23.30;50.20;;;;;;5006551;28;20456;-49
2022/05/15 01:14:22;;;;;;;2.60;2.40;;;23.20;50.10;;;;;;5013783;28;20525;-51
2022/05/15 01:16:52;;;;;;;2.10;2.00;;;23.20;50.20;;;;;;5006610;28;20990;-49
2022/05/15 01:19:32;;;;;;;2.30;2.10;;;23.20;50.20;;;;;;5003503;28;20479;-50
2022/05/15 01:22:04;;;;;;;3.83;1.90;;;23.20;50.20;;;;;;5004952;28;20515;-49
2022/05/15 01:24:35;;;;;;;4.20;2.60;;;23.20;50.20;;;;;;5003431;28;20472;-50
2022/05/15 01:27:09;;;;;;;2.37;2.17;;;23.20;50.20;;;;;;5001820;28;21103;-48
2022/05/15 01:29:41;;;;;;;2.80;2.60;;;23.20;50.20;;;;;;5030197;23;20469;-74
2022/05/15 01:32:10;;;;;;;2.87;2.63;;;23.20;50.20;;;;;;5032959;28;20484;-73
2022/05/15 01:34:39;;;;;;;2.43;1.93;;;23.20;50.20;;;;;;5032408;28;20478;-73
2022/05/15 01:37:09;;;;;;;2.40;2.20;;;23.20;50.10;;;;;;5032668;28;20463;-73
2022/05/15 01:39:38;;;;;;;2.70;2.50;;;23.20;50.00;;;;;;5025123;28;20458;-72
2022/05/15 01:42:10;;;;;;;2.40;2.20;;;23.20;50.00;;;;;;5007949;28;20535;-74
2022/05/15 01:44:39;;;;;;;2.60;2.40;;;23.20;50.00;;;;;;5013868;28;20476;-74
2022/05/15 01:47:08;;;;;;;2.47;2.20;;;23.20;50.10;;;;;;5012900;28;20541;-73
2022/05/15 01:49:37;;;;;;;1.90;1.80;;;23.20;50.20;;;;;;5031947;28;20871;-74
2022/05/15 01:52:06;;;;;;;2.97;2.50;;;23.20;50.10;;;;;;5013538;28;20869;-73
2022/05/15 01:54:35;;;;;;;2.53;2.33;;;23.20;50.10;;;;;;5013583;28;20981;-73
2022/05/15 01:57:04;;;;;;;2.27;2.07;;;23.20;50.20;;;;;;5011795;28;20503;-72
2022/05/15 01:59:33;;;;;;;2.63;2.43;;;23.20;50.10;;;;;;5011989;28;20472;-73
2022/05/15 02:02:01;;;;;;;2.60;2.40;;;23.20;50.20;;;;;;5013145;28;20465;-74
2022/05/15 02:04:29;;;;;;;2.07;1.90;;;23.20;50.20;;;;;;5012493;28;20464;-73
2022/05/15 02:06:58;;;;;;;2.27;2.07;;;23.10;50.00;;;;;;5003664;28;20506;-73
2022/05/15 02:09:26;;;;;;;2.30;2.10;;;23.10;50.00;;;;;;5012319;28;20522;-74
2022/05/15 02:11:55;;;;;;;3.23;2.30;;;23.10;50.10;;;;;;5006786;28;20857;-73
2022/05/15 02:14:24;;;;;;;2.80;2.60;;;23.10;50.00;;;;;;5007420;28;20471;-74
2022/05/15 02:16:52;;;;;;;2.43;2.23;;;23.10;50.00;;;;;;5013511;28;20504;-73
2022/05/15 02:19:21;;;;;;;2.27;2.07;;;23.10;51.10;;;;;;5012201;28;20491;-74
2022/05/15 02:21:49;;;;;;;2.77;2.30;;;23.10;49.90;;;;;;5011984;28;20451;-73
2022/05/15 02:24:17;;;;;;;2.30;2.10;;;23.10;50.00;;;;;;5011712;28;20463;-74
2022/05/15 02:26:46;;;;;;;2.70;2.33;;;23.10;50.10;;;;;;5007366;28;20469;-74
2022/05/15 02:29:16;;;;;;;2.30;2.10;;;23.10;50.10;;;;;;4996385;28;20503;-73
2022/05/15 02:31:44;;;;;;;2.33;2.13;;;23.10;50.20;;;;;;5017284;28;20442;-73
2022/05/15 02:34:12;;;;;;;2.00;1.90;;;23.00;50.10;;;;;;5011867;28;20525;-73
2022/05/15 02:36:41;;;;;;;2.60;2.40;;;23.10;50.10;;;;;;5002433;28;20468;-72
2022/05/15 02:39:09;;;;;;;2.57;2.23;;;23.10;50.20;;;;;;5012655;28;20815;-73
2022/05/15 02:41:37;;;;;;;3.00;2.80;;;23.10;50.20;;;;;;5008578;28;20941;-73
2022/05/15 02:44:06;;;;;;;2.27;2.17;;;23.00;50.10;;;;;;5010888;28;21371;-74
2022/05/15 02:46:35;;;;;;;2.33;2.13;;;23.00;50.20;;;;;;5013248;28;20513;-73
2022/05/15 02:51:53;;;;;;;2.30;2.10;;;23.00;50.20;;;;;;5011416;28;20801;-73
2022/05/15 02:54:21;;;;;;;2.70;2.50;;;23.00;50.10;;;;;;5012084;28;20455;-73
2022/05/15 02:56:50;;;;;;;2.67;2.30;;;23.00;50.10;;;;;;5005721;28;20464;-74
2022/05/15 02:59:18;;;;;;;2.30;2.17;;;23.00;50.10;;;;;;5009689;28;20516;-73
2022/05/15 03:01:47;;;;;;;2.00;1.73;;;23.00;50.00;;;;;;5031071;28;20433;-73
2022/05/15 03:04:16;;;;;;;2.60;2.40;;;23.00;50.20;;;;;;5010558;28;20481;-73
2022/05/15 03:06:44;;;;;;;2.10;1.97;;;23.00;50.20;;;;;;5021889;28;20464;-73
2022/05/15 03:09:12;;;;;;;2.70;2.50;;;23.00;50.00;;;;;;5017047;28;20470;-73
2022/05/15 03:11:40;;;;;;;3.37;2.13;;;23.00;50.10;;;;;;5031975;28;20839;-74
2022/05/15 03:14:09;;;;;;;2.33;2.00;;;23.00;50.10;;;;;;5030507;28;20513;-73
2022/05/15 03:16:37;;;;;;;2.40;2.20;;;23.00;50.20;;;;;;5032377;28;20808;-74
2022/05/15 03:19:07;;;;;;;2.00;1.90;;;22.90;50.10;;;;;;5046847;28;21004;-73
2022/05/15 03:21:35;;;;;;;2.47;2.00;;;22.90;50.10;;;;;;5028335;28;20485;-73
2022/05/15 03:24:07;;;;;;;2.20;2.00;;;22.90;50.10;;;;;;5030249;28;20443;-73
2022/05/15 03:26:38;;;;;;;2.80;2.10;;;22.90;50.10;;;;;;5027400;28;20522;-73
2022/05/15 03:29:07;;;;;;;2.20;2.00;;;22.90;50.10;;;;;;5030285;28;20463;-73
2022/05/15 03:31:36;;;;;;;2.23;2.10;;;22.90;50.00;;;;;;5032278;28;20470;-74
2022/05/15 03:34:05;;;;;;;2.20;2.10;;;22.90;50.00;;;;;;5028332;28;20795;-73
2022/05/15 03:36:34;;;;;;;1.90;1.80;;;22.90;50.00;;;;;;5026101;28;20870;-73
2022/05/15 03:39:03;;;;;;;2.37;2.17;;;22.90;50.00;;;;;;5031327;28;20965;-72
2022/05/15 03:41:31;;;;;;;2.43;2.23;;;22.90;50.00;;;;;;5030236;28;20964;-73
2022/05/15 03:43:59;;;;;;;2.30;2.10;;;22.90;50.00;;;;;;5020694;28;20463;-73
2022/05/15 03:46:28;;;;;;;2.47;2.13;;;22.90;50.10;;;;;;5031595;28;21021;-74
2022/05/15 03:48:58;;;;;;;2.47;1.97;;;22.90;50.00;;;;;;5033771;28;20996;-74
2022/05/15 03:51:26;;;;;;;2.00;1.90;;;22.90;50.10;;;;;;5023697;28;20535;-73
2022/05/15 03:53:55;;;;;;;2.30;2.10;;;22.90;50.00;;;;;;5031288;28;20533;-73
2022/05/15 03:59:06;;;;;;;3.10;2.13;;;22.80;50.00;;;;;;5021245;28;20497;-74
2022/05/15 04:01:34;;;;;;;2.27;2.07;;;22.80;50.00;;;;;;5030903;28;20441;-74
2022/05/15 04:04:03;;;;;;;2.70;2.50;;;22.80;50.00;;;;;;5029704;28;20438;-71
2022/05/15 04:06:32;;;;;;;2.83;2.43;;;22.80;50.10;;;;;;5033570;28;20800;-73
2022/05/15 04:09:01;;;;;;;2.40;2.20;;;22.80;50.00;;;;;;5029736;28;20468;-73
2022/05/15 04:11:30;;;;;;;2.07;1.80;;;22.80;50.10;;;;;;5028233;28;20524;-73
2022/05/15 04:13:58;;;;;;;2.07;1.93;;;22.80;50.10;;;;;;5044844;28;20444;-73
2022/05/15 04:16:29;;;;;;;2.30;2.10;;;22.80;50.10;;;;;;5031431;28;20507;-74
2022/05/15 04:18:57;;;;;;;3.53;2.00;;;22.80;50.10;;;;;;5028350;28;20435;-72
2022/05/15 04:21:26;;;;;;;3.00;2.57;;;22.80;50.10;;;;;;5025771;28;20966;-74
2022/05/15 04:23:56;;;;;;;2.50;2.17;;;22.70;50.00;;;;;;5030120;28;20449;-74
2022/05/15 04:26:26;;;;;;;2.70;2.50;;;22.80;50.20;;;;;;5028230;28;20471;-74
2022/05/15 04:28:54;;;;;;;2.30;2.10;;;22.70;50.00;;;;;;5027321;28;20825;-71
2022/05/15 04:31:22;;;;;;;2.20;2.10;;;22.70;50.00;;;;;;5046530;28;20489;-73
2022/05/15 04:33:50;;;;;;;2.27;2.07;;;22.70;50.10;;;;;;5030482;28;20476;-74
2022/05/15 04:36:18;;;;;;;2.03;1.90;;;22.70;50.10;;;;;;5021595;28;20457;-72
2022/05/15 04:38:47;;;;;;;2.37;2.17;;;22.70;50.20;;;;;;5031104;28;20434;-72
2022/05/15 04:41:15;;;;;;;2.57;2.40;;;22.70;50.20;;;;;;5025656;28;21758;-73
2022/05/15 04:43:44;;;;;;;2.50;2.30;;;22.70;50.20;;;;;;5019833;28;20844;-73
2022/05/15 04:46:12;;;;;;;3.63;2.80;;;22.70;50.20;;;;;;5030596;28;20460;-73
2022/05/15 04:48:41;;;;;;;2.77;2.57;;;22.70;50.20;;;;;;5031159;28;20496;-73
2022/05/15 04:51:09;;;;;;;3.80;2.50;;;22.70;50.10;;;;;;5032031;28;21039;-73
2022/05/15 04:53:37;;;;;;;2.63;2.10;;;22.70;50.30;;;;;;5034827;28;20441;-74
2022/05/15 04:56:06;;;;;;;2.50;2.30;;;22.70;50.20;;;;;;5032142;28;20524;-72
2022/05/15 04:58:34;;;;;;;2.40;2.30;;;22.70;50.10;;;;;;5030312;28;20486;-73
2022/05/15 05:01:04;;;;;;;3.10;2.30;;;22.60;50.10;;;;;;5034396;28;20501;-73
2022/05/15 05:03:32;;;;;;;2.73;2.53;;;22.70;50.20;;;;;;5035136;28;20436;-74
2022/05/15 05:06:00;;;;;;;3.27;2.07;;;22.60;50.10;;;;;;5033083;28;20477;-73
2022/05/15 05:08:28;;;;;;;2.20;2.00;;;22.60;50.10;;;;;;5029257;28;20465;-72
2022/05/15 05:10:56;;;;;;;2.40;2.27;;;22.60;50.20;;;;;;5032963;28;20499;-71
2022/05/15 05:13:24;;;;;;;2.97;2.40;;;22.60;50.20;;;;;;5029084;28;20950;-73
2022/05/15 05:15:53;;;;;;;2.30;2.10;;;22.60;50.20;;;;;;5033453;28;20485;-73
2022/05/15 05:18:22;;;;;;;2.70;2.23;;;22.60;50.10;;;;;;5034884;28;20455;-73
2022/05/15 05:20:50;;;;;;;2.20;2.10;;;22.50;50.20;;;;;;5033148;28;20488;-73
2022/05/15 05:23:21;;;;;;;2.60;2.23;;;22.50;50.10;;;;;;5036736;28;20473;-74
2022/05/15 05:25:50;;;;;;;2.30;2.10;;;22.60;50.20;;;;;;5033808;28;20549;-75
2022/05/15 05:28:18;;;;;;;1.93;1.83;;;22.60;50.20;;;;;;5021581;28;20807;-73
2022/05/15 05:30:46;;;;;;;2.60;2.20;;;22.60;50.20;;;;;;5033683;28;20551;-74
2022/05/15 05:33:14;;;;;;;2.20;2.00;;;22.60;50.20;;;;;;5033650;28;20433;-73
2022/05/15 05:35:44;;;;;;;2.33;2.13;;;22.50;50.10;;;;;;5028998;28;20539;-73
2022/05/15 05:38:12;;;;;;;3.17;2.63;;;22.50;50.20;;;;;;5027964;28;20444;-72
2022/05/15 05:40:41;;;;;;;3.83;2.60;;;22.50;50.20;;;;;;5033440;28;20456;-74
2022/05/15 05:43:09;;;;;;;3.30;3.00;;;22.50;50.10;;;;;;5034240;28;21119;-74
2022/05/15 05:45:38;;;;;;;2.47;2.27;;;22.50;50.00;;;;;;5033456;28;20470;-73
2022/05/15 05:48:07;;;;;;;2.80;2.60;;;22.50;50.20;;;;;;5033690;28;20545;-73
2022/05/15 05:50:36;;;;;;;2.60;2.40;;;22.50;50.20;;;;;;5018020;28;20517;-73
2022/05/15 05:53:06;;;;;;;2.90;2.70;;;22.50;50.20;;;;;;5017268;28;20425;-74
2022/05/15 05:55:34;;;;;;;2.77;2.50;;;22.50;50.10;;;;;;5033525;28;20993;-74
2022/05/15 05:58:02;;;;;;;2.27;2.07;;;22.50;50.10;;;;;;5018140;28;20524;-73
2022/05/15 06:00:34;;;;;;;2.90;2.70;;;22.50;50.20;;;;;;5014007;28;20530;-73
2022/05/15 06:05:48;;;;;;;2.50;2.30;;;22.50;50.20;;;;;;5021001;28;20479;-71
2022/05/15 06:08:19;;;;;;;3.07;2.07;;;22.50;50.20;;;;;;5034040;28;20437;-72
2022/05/15 06:10:47;;;;;;;3.30;2.20;;;22.50;50.30;;;;;;5033829;28;20457;-73
2022/05/15 06:13:15;;;;;;;3.10;2.77;;;22.50;50.30;;;;;;5016026;28;20493;-73
2022/05/15 06:15:44;;;;;;;3.40;3.10;;;22.50;50.20;;;;;;5020711;28;21072;-73
2022/05/15 06:18:12;;;;;;;6.07;5.20;;;22.50;50.30;;;;;;5017340;28;20454;-74
2022/05/15 06:20:40;;;;;;;5.40;4.90;;;22.40;49.70;;;;;;5013591;28;20466;-72
2022/05/15 06:23:08;;;;;;;8.43;6.27;;;22.40;49.00;;;;;;5012797;28;20419;-73
2022/05/15 06:25:37;;;;;;;7.60;6.53;;;22.40;48.70;;;;;;5013152;28;20524;-73
2022/05/15 06:28:06;;;;;;;11.00;5.53;;;22.30;48.40;;;;;;5014382;28;20450;-73
2022/05/15 06:30:36;;;;;;;7.60;5.03;;;22.30;48.20;;;;;;5028483;28;20532;-73
2022/05/15 06:33:05;;;;;;;5.97;5.47;;;22.30;48.40;;;;;;5013877;28;20466;-73
2022/05/15 06:35:33;;;;;;;8.87;6.37;;;22.30;48.30;;;;;;5017010;28;20472;-73
2022/05/15 06:38:01;;;;;;;10.77;6.80;;;22.30;48.00;;;;;;5033479;28;20878;-73
2022/05/15 06:40:29;;;;;;;8.40;6.23;;;22.30;47.80;;;;;;5033057;28;20468;-74
2022/05/15 06:42:59;;;;;;;8.17;6.47;;;22.30;48.10;;;;;;5030151;28;20438;-74
2022/05/15 06:45:28;;;;;;;7.93;5.43;;;22.30;47.80;;;;;;5032681;28;20512;-73
2022/05/15 06:47:57;;;;;;;7.10;5.70;;;22.40;47.60;;;;;;5033435;28;20505;-73
2022/05/15 06:50:25;;;;;;;8.13;5.20;;;22.40;47.50;;;;;;5029402;28;20477;-74
2022/05/15 06:52:53;;;;;;;9.30;5.67;;;22.40;47.50;;;;;;5033227;28;20470;-73
2022/05/15 06:55:23;;;;;;;7.40;5.10;;;22.50;47.00;;;;;;5030719;28;20514;-72
2022/05/15 06:57:50;;;;;;;5.70;4.60;;;22.50;47.00;;;;;;5028115;28;20434;-72
2022/05/15 07:00:22;;;;;;;8.60;5.13;;;22.50;47.00;;;;;;5031002;28;20606;-74
2022/05/15 07:02:50;;;;;;;6.10;4.33;;;22.60;46.40;;;;;;5031167;28;20445;-74
2022/05/15 07:05:22;;;;;;;4.93;4.50;;;22.50;47.00;;;;;;5030346;28;20918;-73
2022/05/15 07:07:52;;;;;;;4.47;3.70;;;22.50;47.30;;;;;;5031460;28;20482;-73
2022/05/15 07:10:20;;;;;;;8.30;4.80;;;22.40;47.60;;;;;;5031924;28;20476;-73
2022/05/15 07:12:48;;;;;;;7.60;5.30;;;22.30;48.90;;;;;;5029135;28;21170;-75
2022/05/15 07:15:17;;;;;;;7.17;4.33;;;22.30;48.20;;;;;;5030742;28;20776;-72
2022/05/15 07:17:46;;;;;;;8.40;4.40;;;22.30;48.20;;;;;;5032247;28;20439;-73
2022/05/15 07:20:14;;;;;;;6.30;4.63;;;22.30;48.30;;;;;;5026684;28;20482;-74
2022/05/15 07:22:43;;;;;;;8.03;4.37;;;22.30;48.30;;;;;;5032464;28;20443;-73
2022/05/15 07:25:11;;;;;;;5.27;4.33;;;22.20;48.30;;;;;;5031343;28;20471;-72
2022/05/15 07:27:40;;;;;;;4.23;3.80;;;22.30;48.40;;;;;;5024802;28;20445;-73
2022/05/15 07:30:09;;;;;;;8.57;4.00;;;22.30;48.40;;;;;;5031668;28;20981;-73
2022/05/15 07:32:44;;;;;;;8.13;4.57;;;22.30;48.50;;;;;;5032134;28;20433;-74
2022/05/15 07:35:14;;;;;;;4.73;4.30;;;22.30;48.60;;;;;;5027126;28;20480;-72
2022/05/15 07:37:42;;;;;;;4.80;4.40;;;22.30;48.40;;;;;;5032059;28;20922;-73
2022/05/15 07:40:11;;;;;;;7.00;4.30;;;22.40;48.40;;;;;;5032692;28;20464;-74
2022/05/15 07:42:41;;;;;;;5.80;4.77;;;22.40;48.40;;;;;;5026940;28;20510;-73
2022/05/15 07:45:10;;;;;;;5.47;4.37;;;22.40;48.30;;;;;;5030919;28;20484;-73
2022/05/15 07:47:38;;;;;;;3.97;3.53;;;22.40;48.50;;;;;;5031788;28;20475;-74
2022/05/15 07:50:08;;;;;;;5.60;4.50;;;22.40;48.60;;;;;;5024657;28;20472;-72
2022/05/15 07:52:38;;;;;;;5.87;3.63;;;22.30;48.60;;;;;;5031718;28;20441;-73
2022/05/15 07:55:12;;;;;;;7.87;4.17;;;22.30;48.70;;;;;;5031316;28;20876;-73
2022/05/15 07:57:40;;;;;;;6.20;4.10;;;22.30;48.70;;;;;;5023228;28;20934;-74
2022/05/15 08:00:13;;;;;;;3.50;3.30;;;22.30;48.80;;;;;;5030786;28;20472;-74
2022/05/15 08:02:43;;;;;;;4.93;3.57;;;22.30;48.80;;;;;;5031809;28;20435;-73
2022/05/15 08:08:01;;;;;;;8.37;3.83;;;22.30;49.00;;;;;;5025954;28;20467;-72
2022/05/15 08:10:32;;;;;;;4.33;3.93;;;22.30;49.10;;;;;;5031446;28;20512;-74
2022/05/15 08:13:01;;;;;;;5.17;3.60;;;22.30;49.10;;;;;;5018412;28;21305;-73
2022/05/15 08:15:30;;;;;;;5.20;3.67;;;22.30;49.10;;;;;;5022701;28;20994;-73
2022/05/15 08:23:33;;;;;;;6.63;3.60;;;22.30;49.20;;;;;;5030655;28;20903;-73
2022/05/15 08:23:38;;;;;;;3.53;3.23;;;22.30;49.30;;;;;;5015042;28;20492;-73
2022/05/15 08:26:07;;;;;;;4.43;4.03;;;22.30;49.30;;;;;;5034293;28;21013;-72
2022/05/15 08:28:35;;;;;;;3.57;3.17;;;22.30;49.40;;;;;;5035072;28;20996;-74
2022/05/15 08:31:06;;;;;;;5.30;3.50;;;22.30;49.40;;;;;;5035047;28;20469;-74
2022/05/15 08:33:35;;;;;;;4.53;2.93;;;22.30;49.40;;;;;;5035453;28;21013;-73
2022/05/15 08:36:04;;;;;;;5.10;3.63;;;22.30;49.40;;;;;;5027605;28;20589;-73
2022/05/15 08:38:33;;;;;;;3.50;3.20;;;22.30;49.40;;;;;;5035348;28;20461;-74
2022/05/15 08:41:09;;;;;;;5.67;4.10;;;22.30;49.50;;;;;;5034167;28;20475;-73
2022/05/15 08:43:42;;;;;;;4.17;3.40;;;22.30;49.50;;;;;;5046255;28;20474;-74
2022/05/15 08:46:29;;;;;;;3.70;3.40;;;22.30;49.50;;;;;;5034463;28;20995;-72
2022/05/15 08:49:06;;;;;;;3.47;3.13;;;22.30;49.70;;;;;;5034426;28;20431;-73
2022/05/15 08:51:34;;;;;;;4.50;3.50;;;22.30;49.60;;;;;;5033358;28;20464;-73
2022/05/15 08:54:07;;;;;;;4.37;4.07;;;22.30;49.10;;;;;;5034333;28;20802;-73
2022/05/15 08:56:45;;;;;;;3.60;3.27;;;22.30;49.20;;;;;;5030752;28;20466;-73
2022/05/15 08:59:22;;;;;;;4.20;2.93;;;22.30;49.30;;;;;;5033088;28;20458;-73
2022/05/15 09:01:53;;;;;;;4.93;3.83;;;22.30;49.40;;;;;;5034663;28;20436;-73
2022/05/15 09:04:22;;;;;;;3.43;3.13;;;22.30;49.40;;;;;;5028756;28;20471;-72
2022/05/15 09:07:09;;;;;;;7.20;3.90;;;22.30;49.40;;;;;;5032659;28;20801;-74
2022/05/15 09:09:50;;;;;;;3.50;3.20;;;22.30;49.50;;;;;;5033491;28;20839;-73
2022/05/15 09:12:22;;;;;;;4.63;3.10;;;22.40;49.50;;;;;;5021677;28;20525;-73
2022/05/15 09:15:02;;;;;;;3.40;2.97;;;22.30;49.40;;;;;;5031588;28;20992;-73
2022/05/15 09:17:34;;;;;;;4.90;3.13;;;22.30;49.60;;;;;;5034726;28;20448;-74
2022/05/15 09:20:07;;;;;;;5.10;3.90;;;22.30;49.70;;;;;;5024960;28;20515;-73
2022/05/15 09:22:38;;;;;;;5.03;3.10;;;22.30;49.70;;;;;;5035105;28;20476;-74
2022/05/15 09:25:15;;;;;;;3.90;3.23;;;22.30;49.90;;;;;;5033936;28;20527;-74
2022/05/15 09:27:59;;;;;;;5.43;3.80;;;22.30;49.80;;;;;;5028878;28;20502;-73
2022/05/15 09:30:34;;;;;;;3.80;3.40;;;22.30;49.80;;;;;;5033524;28;20475;-73
2022/05/15 09:33:02;;;;;;;3.10;2.73;;;22.30;49.90;;;;;;5033507;28;20501;-73
2022/05/15 09:35:35;;;;;;;3.13;2.87;;;22.30;49.80;;;;;;5031017;28;20739;-73
2022/05/15 09:43:55;;;;;;;3.50;3.20;;;22.30;49.90;;;;;;5046275;28;20440;-72
2022/05/15 09:46:25;;;;;;;3.70;3.17;;;22.30;50.00;;;;;;5033771;28;20502;-73
2022/05/15 09:48:57;;;;;;;6.90;3.83;;;22.30;50.00;;;;;;5035385;28;20432;-74
2022/05/15 09:51:42;;;;;;;5.33;2.80;;;22.30;50.00;;;;;;5036830;28;20503;-73
2022/05/15 09:54:27;;;;;;;3.20;2.87;;;22.30;50.00;;;;;;5032937;28;20654;-73
2022/05/15 09:57:09;;;;;;;5.17;3.17;;;22.30;50.00;;;;;;5028246;28;20461;-73
2022/05/15 09:59:39;;;;;;;3.80;2.90;;;22.30;50.00;;;;;;5021241;28;20464;-74
2022/05/15 10:02:18;;;;;;;3.50;2.63;;;22.30;50.00;;;;;;5034088;28;20441;-73
2022/05/15 10:04:50;;;;;;;2.73;2.57;;;22.30;50.10;;;;;;5029068;28;20518;-73
2022/05/15 10:07:34;;;;;;;3.10;2.90;;;22.30;50.00;;;;;;5026961;28;20436;-73
2022/05/15 10:10:17;;;;;;;2.80;2.60;;;22.30;50.00;;;;;;5032360;28;20488;-73
2022/05/15 10:12:50;;;;;;;4.73;3.73;;;22.30;50.00;;;;;;5028256;28;20556;-73
2022/05/15 10:15:21;;;;;;;4.53;2.60;;;22.30;50.00;;;;;;5029508;28;20997;-73
2022/05/15 10:17:54;;;;;;;3.10;2.90;;;22.30;50.00;;;;;;5033489;28;20610;-73
2022/05/15 10:20:25;;;;;;;3.30;3.00;;;22.30;50.00;;;;;;5032203;28;20877;-72
2022/05/15 10:23:01;;;;;;;2.80;2.60;;;22.30;50.10;;;;;;5031710;28;20443;-73
2022/05/15 10:25:39;;;;;;;4.90;3.27;;;22.30;50.10;;;;;;5032599;28;20476;-73
2022/05/15 10:28:20;;;;;;;2.87;2.60;;;22.30;50.20;;;;;;5027368;28;21106;-73
2022/05/15 10:30:58;;;;;;;2.57;2.37;;;22.30;50.10;;;;;;5032035;28;20468;-73
2022/05/15 10:33:26;;;;;;;3.13;2.93;;;22.30;50.00;;;;;;5033642;28;20436;-73
2022/05/15 10:36:01;;;;;;;3.37;3.13;;;22.30;50.00;;;;;;5030509;28;20539;-73
2022/05/15 10:38:46;;;;;;;3.20;2.90;;;22.30;50.00;;;;;;5032545;28;20861;-73
2022/05/15 10:41:19;;;;;;;2.73;2.53;;;22.30;50.00;;;;;;5031566;28;20467;-73
2022/05/15 10:44:02;;;;;;;2.97;2.67;;;22.30;50.10;;;;;;5032671;28;20433;-73
2022/05/15 10:46:41;;;;;;;3.10;2.80;;;22.30;51.20;;;;;;5032524;28;20849;-73
2022/05/15 10:49:23;;;;;;;3.30;2.63;;;22.30;50.00;;;;;;5032549;28;20536;-73
2022/05/15 10:52:00;;;;;;;3.40;3.10;;;22.30;50.10;;;;;;5032176;28;20466;-72
2022/05/15 10:57:30;;;;;;;2.63;2.43;;;22.30;50.10;;;;;;5031466;28;20503;-73
2022/05/15 11:00:06;;;;;;;2.97;2.77;;;22.30;50.20;;;;;;5032148;28;20515;-73
2022/05/15 11:03:09;;;;;;;2.83;2.63;;;22.30;50.20;;;;;;5032308;28;20466;-73
2022/05/15 11:05:44;;;;;;;2.50;2.33;;;22.30;50.10;;;;;;5012300;28;20991;-73
2022/05/15 11:08:35;;;;;;;3.67;3.07;;;22.30;50.00;;;;;;5022833;28;20549;-73
2022/05/15 11:11:14;;;;;;;3.53;2.83;;;22.30;50.00;;;;;;5032339;28;20886;-73
2022/05/15 11:13:54;;;;;;;3.30;2.60;;;22.30;50.00;;;;;;5028484;28;20432;-73
2022/05/15 11:16:32;;;;;;;3.03;2.83;;;22.30;50.00;;;;;;5032202;28;20499;-72
2022/05/15 11:19:23;;;;;;;3.33;3.03;;;22.30;49.90;;;;;;5032122;28;20436;-73
2022/05/15 11:21:57;;;;;;;3.13;2.60;;;22.30;50.00;;;;;;5029987;28;20452;-73
2022/05/15 11:24:40;;;;;;;3.40;2.37;;;22.40;50.00;;;;;;5031711;28;20520;-73
2022/05/15 11:27:16;;;;;;;3.23;3.00;;;22.40;50.00;;;;;;5028406;28;20881;-73
2022/05/15 11:29:49;;;;;;;3.57;2.60;;;22.30;50.00;;;;;;5031578;28;20479;-73
2022/05/15 11:32:39;;;;;;;2.60;2.40;;;22.40;50.00;;;;;;5034992;28;20451;-73
2022/05/15 11:35:26;;;;;;;2.90;2.70;;;22.40;50.00;;;;;;5031383;28;20544;-73
2022/05/15 11:38:12;;;;;;;2.50;2.30;;;22.40;50.00;;;;;;5031115;28;20444;-73
2022/05/15 11:40:44;;;;;;;2.60;2.40;;;22.40;49.80;;;;;;5030251;28;20534;-74
2022/05/15 11:43:58;;;;;;;2.93;2.57;;;22.40;49.90;;;;;;5028651;28;20432;-73
2022/05/15 11:47:05;;;;;;;2.70;2.50;;;22.40;49.80;;;;;;5015121;28;20468;-73
2022/05/15 11:49:37;;;;;;;2.47;2.27;;;22.40;49.40;;;;;;5008351;28;20456;-73
2022/05/15 11:52:20;;;;;;;2.70;2.50;;;22.40;49.30;;;;;;5028254;28;20452;-73
2022/05/15 11:54:53;;;;;;;3.03;2.23;;;22.40;49.70;;;;;;5031076;28;20457;-73
2022/05/15 11:57:39;;;;;;;2.33;2.10;;;22.40;49.70;;;;;;5023492;28;20448;-73
2022/05/15 12:00:20;;;;;;;2.57;2.37;;;22.40;49.70;;;;;;5031413;28;20530;-73
2022/05/15 12:02:56;;;;;;;2.37;2.17;;;22.40;49.50;;;;;;5031230;28;20922;-73
2022/05/15 12:05:32;;;;;;;2.13;2.03;;;22.40;49.40;;;;;;5028088;28;20587;-73
2022/05/15 12:08:07;;;;;;;2.60;2.40;;;22.40;49.40;;;;;;5027261;28;20432;-73
2022/05/15 12:10:56;;;;;;;3.07;2.80;;;22.40;49.70;;;;;;5031227;28;20559;-73
2022/05/15 12:13:33;;;;;;;5.10;2.50;;;22.40;49.60;;;;;;5030607;28;20483;-73
2022/05/15 12:16:31;;;;;;;2.77;2.50;;;22.40;49.50;;;;;;5030854;28;20467;-73
2022/05/15 12:19:04;;;;;;;2.80;2.60;;;22.50;49.70;;;;;;4996749;28;20488;-73
2022/05/15 12:21:46;;;;;;;2.70;2.50;;;22.50;49.70;;;;;;5018223;28;21177;-72
2022/05/15 12:24:31;;;;;;;2.47;2.27;;;22.50;49.60;;;;;;5031247;28;20417;-73
2022/05/15 12:27:19;;;;;;;2.90;2.70;;;22.40;49.70;;;;;;5025746;28;20876;-73
2022/05/15 12:30:01;;;;;;;2.40;2.00;;;22.50;49.50;;;;;;5030648;28;20904;-73
2022/05/15 12:32:35;;;;;;;2.73;2.53;;;22.50;49.30;;;;;;5025055;28;20452;-73
2022/05/15 12:35:07;;;;;;;2.50;2.10;;;22.50;49.40;;;;;;5029149;28;20471;-73
2022/05/15 12:37:52;;;;;;;2.87;2.67;;;22.50;49.20;;;;;;5031626;28;20510;-73
2022/05/15 12:40:27;;;;;;;2.63;2.30;;;22.50;49.40;;;;;;5030281;28;20988;-74
2022/05/15 12:42:58;;;;;;;2.80;2.47;;;22.50;49.40;;;;;;5016628;28;20862;-72
2022/05/15 12:45:27;;;;;;;2.33;2.13;;;22.50;49.40;;;;;;5016133;28;20546;-73
2022/05/15 12:48:01;;;;;;;2.50;2.03;;;22.50;49.40;;;;;;5031734;28;20437;-73
2022/05/15 12:50:29;;;;;;;2.70;2.50;;;22.50;49.40;;;;;;5028021;28;20500;-73
2022/05/15 12:53:01;;;;;;;4.43;2.20;;;22.50;49.30;;;;;;5031195;28;21032;-73
2022/05/15 12:55:33;;;;;;;2.20;2.00;;;22.50;49.40;;;;;;5030443;28;20473;-73
2022/05/15 12:58:05;;;;;;;2.47;2.27;;;22.50;49.50;;;;;;5025121;28;20456;-73
2022/05/15 13:00:36;;;;;;;2.53;2.33;;;22.50;49.50;;;;;;5017824;28;20484;-73
2022/05/15 13:03:08;;;;;;;2.20;2.00;;;22.60;49.50;;;;;;5030579;28;20492;-73
2022/05/15 13:05:40;;;;;;;2.60;2.40;;;22.60;49.60;;;;;;5022824;28;20472;-73
2022/05/15 13:08:09;;;;;;;2.67;2.47;;;22.50;49.50;;;;;;5030636;28;20815;-73
2022/05/15 13:10:51;;;;;;;2.33;2.23;;;22.60;49.70;;;;;;5031745;28;20875;-73
2022/05/15 13:13:24;;;;;;;6.90;3.03;;;22.60;49.70;;;;;;5028257;28;20964;-73
2022/05/15 13:15:56;;;;;;;2.50;2.30;;;22.60;49.60;;;;;;5033555;28;20477;-73
2022/05/15 13:18:27;;;;;;;2.87;2.13;;;22.60;49.50;;;;;;5034346;28;20855;-73
2022/05/15 13:21:01;;;;;;;2.27;2.07;;;22.60;49.10;;;;;;5033675;28;20474;-73
2022/05/15 13:23:32;;;;;;;2.43;2.17;;;22.60;49.40;;;;;;5030975;28;20445;-73
2022/05/15 13:26:04;;;;;;;2.77;2.30;;;22.60;49.40;;;;;;5034941;28;20476;-73
2022/05/15 13:28:33;;;;;;;2.40;2.30;;;22.70;49.50;;;;;;5021161;28;20998;-73
2022/05/15 13:31:02;;;;;;;2.60;2.40;;;22.70;49.40;;;;;;5033540;28;20904;-73
2022/05/15 13:33:32;;;;;;;2.50;2.30;;;22.70;49.40;;;;;;5034192;28;20464;-73
2022/05/15 13:36:01;;;;;;;2.43;2.23;;;22.70;49.50;;;;;;5027016;28;20478;-73